Time;durP1;ratioP1;P1;durP2;ratioP2;P2;SDS_P1;SDS_P2;PMS_P1;PMS_P2;Temp;Humidity;BMP_temperature;BMP_pressure;BME280_temperature;BME280_humidity;BME280_pressure;Samples;Min_cycle;Max_cycle;Signal;HPM_P1;HPM_P2
2023/06/13 00:02:07;;;;;;;0.00;0.00;;;;;;;;;;6337791;22;20011;-90
2023/06/13 00:04:33;;;;;;;0.00;0.00;;;;;;;;;;6337433;22;20063;-90
2023/06/13 00:06:59;;;;;;;0.00;0.00;;;;;;;;;;6337564;22;20408;-90
2023/06/13 00:09:25;;;;;;;0.00;0.00;;;17.90;79.60;;;;;;6337085;22;20002;-90
2023/06/13 00:11:51;;;;;;;0.00;0.00;;;17.80;80.00;;;;;;6337125;22;20079;-89
2023/06/13 00:14:23;;;;;;;0.00;0.00;;;20.60;80.80;;;;;;6337822;22;20003;-89
2023/06/13 00:16:50;;;;;;;0.00;0.00;;;;;;;;;;6337403;22;20089;-89
2023/06/13 00:19:17;;;;;;;0.00;0.00;;;18.00;85.20;;;;;;6339526;22;20002;-89
2023/06/13 00:21:47;;;;;;;0.00;0.00;;;17.70;84.30;;;;;;6338597;22;20341;-88
2023/06/13 00:24:13;;;;;;;0.00;0.00;;;;;;;;;;6312054;22;20468;-91
2023/06/13 00:26:39;;;;;;;0.00;0.00;;;;;;;;;;6337340;22;20010;-90
2023/06/13 00:29:05;;;;;;;0.00;0.00;;;;;;;;;;6337605;22;20011;-89
2023/06/13 00:31:32;;;;;;;0.00;0.00;;;;;;;;;;6337323;22;20413;-91
2023/06/13 00:33:58;;;;;;;0.00;0.00;;;;;;;;;;6337348;22;20468;-90
2023/06/13 00:36:25;;;;;;;0.00;0.00;;;17.20;87.20;;;;;;6337668;22;20021;-89
2023/06/13 00:38:51;;;;;;;0.00;0.00;;;17.20;86.80;;;;;;6337514;22;20002;-90
2023/06/13 00:41:17;;;;;;;0.00;0.00;;;;;;;;;;6337452;22;20059;-89
2023/06/13 00:43:43;;;;;;;0.00;0.00;;;;;;;;;;6337116;22;20027;-90
2023/06/13 00:46:09;;;;;;;0.00;0.00;;;;;;;;;;6337042;22;19995;-89
2023/06/13 00:48:37;;;;;;;0.00;0.00;;;17.20;85.00;;;;;;6337357;22;20056;-89
2023/06/13 00:51:03;;;;;;;0.00;0.00;;;17.20;85.50;;;;;;6336817;22;19995;-90
2023/06/13 00:53:31;;;;;;;0.00;0.00;;;17.30;85.40;;;;;;6337034;22;20057;-89
2023/06/13 00:55:57;;;;;;;0.00;0.00;;;;;;;;;;6336391;22;20430;-90
2023/06/13 00:58:23;;;;;;;0.00;0.00;;;17.20;86.30;;;;;;6336966;22;20010;-89
2023/06/13 01:00:49;;;;;;;0.00;0.00;;;17.20;85.90;;;;;;6336855;22;20002;-89
2023/06/13 01:03:15;;;;;;;0.00;0.00;;;17.20;86.40;;;;;;6337082;22;20202;-90
2023/06/13 01:05:43;;;;;;;0.00;0.00;;;17.10;86.60;;;;;;6336847;22;20049;-89
2023/06/13 01:08:28;;;;;;;0.00;0.00;;;17.10;86.80;;;;;;6310953;22;20007;-89
2023/06/13 01:11:09;;;;;;;0.00;0.00;;;17.10;87.00;;;;;;6337727;22;20053;-90
2023/06/13 01:13:47;;;;;;;0.00;0.00;;;17.10;86.20;;;;;;6338840;22;20018;-89
2023/06/13 01:16:28;;;;;;;0.00;0.00;;;17.10;86.70;;;;;;6338555;22;20370;-89
2023/06/13 01:18:56;;;;;;;0.00;0.00;;;17.00;86.80;;;;;;6338384;22;20078;-89
2023/06/13 01:21:24;;;;;;;0.00;0.00;;;;;;;;;;6338264;22;20588;-89
2023/06/13 01:24:05;;;;;;;0.00;0.00;;;17.10;86.30;;;;;;6338129;22;20030;-89
2023/06/13 01:26:56;;;;;;;0.00;0.00;;;17.00;86.50;;;;;;6338458;22;20006;-90
2023/06/13 01:29:22;;;;;;;0.00;0.00;;;17.00;86.90;;;;;;6338498;22;20013;-89
2023/06/13 01:31:51;;;;;;;0.00;0.00;;;16.80;87.50;;;;;;6338369;22;20030;-90
2023/06/13 01:34:17;;;;;;;0.00;0.00;;;;;;;;;;6338652;22;19999;-89
2023/06/13 01:36:43;;;;;;;0.00;0.00;;;16.80;87.60;;;;;;6338722;22;19999;-90
2023/06/13 01:39:09;;;;;;;0.00;0.00;;;;;;;;;;6338069;22;20032;-89
2023/06/13 01:41:35;;;;;;;0.00;0.00;;;16.80;87.00;;;;;;6338446;22;20011;-89
2023/06/13 01:44:03;;;;;;;0.00;0.00;;;16.70;88.10;;;;;;6338407;22;20002;-89
2023/06/13 01:46:30;;;;;;;0.00;0.00;;;16.70;88.20;;;;;;6337997;22;20010;-90
2023/06/13 01:49:03;;;;;;;0.00;0.00;;;16.60;88.60;;;;;;6338453;22;20368;-90
2023/06/13 01:51:42;;;;;;;0.00;0.00;;;16.60;89.00;;;;;;6338195;22;20010;-89
2023/06/13 01:54:13;;;;;;;0.00;0.00;;;16.60;88.80;;;;;;6338203;22;20108;-89
2023/06/13 01:56:42;;;;;;;0.00;0.00;;;16.50;89.20;;;;;;6338733;22;20025;-89
2023/06/13 01:59:08;;;;;;;0.00;0.00;;;;;;;;;;6338060;22;20049;-89
2023/06/13 02:01:38;;;;;;;0.00;0.00;;;16.10;89.10;;;;;;6338705;22;20011;-90
2023/06/13 02:04:04;;;;;;;0.00;0.00;;;;;;;;;;6337877;22;20323;-89
2023/06/13 02:06:29;;;;;;;0.00;0.00;;;16.50;89.80;;;;;;6338483;22;20003;-90
2023/06/13 02:08:56;;;;;;;0.00;0.00;;;16.40;90.20;;;;;;6337846;22;20028;-90
2023/06/13 02:11:22;;;;;;;0.00;0.00;;;16.40;90.40;;;;;;6338525;22;20342;-89
2023/06/13 02:13:49;;;;;;;0.00;0.00;;;;;;;;;;6338041;22;20005;-89
2023/06/13 02:16:17;;;;;;;0.00;0.00;;;16.30;90.50;;;;;;6337728;22;20487;-90
2023/06/13 02:18:43;;;;;;;0.00;0.00;;;16.30;90.70;;;;;;6338122;22;20009;-90
2023/06/13 02:21:08;;;;;;;0.00;0.00;;;16.20;90.60;;;;;;6337973;22;20005;-89
2023/06/13 02:23:34;;;;;;;0.00;0.00;;;16.30;90.70;;;;;;6337882;22;20002;-90
2023/06/13 02:25:59;;;;;;;0.00;0.00;;;16.20;90.90;;;;;;6338044;22;19998;-88
2023/06/13 02:28:25;;;;;;;0.00;0.00;;;;;;;;;;6338159;22;20007;-89
2023/06/13 02:30:52;;;;;;;0.00;0.00;;;;;;;;;;6337978;22;20006;-88
2023/06/13 02:33:18;;;;;;;0.00;0.00;;;16.00;91.30;;;;;;6338089;22;20082;-89
2023/06/13 02:35:45;;;;;;;0.00;0.00;;;16.00;91.70;;;;;;6337807;22;20362;-89
2023/06/13 02:38:11;;;;;;;0.00;0.00;;;16.00;91.90;;;;;;6337779;22;20082;-91
2023/06/13 02:40:38;;;;;;;0.00;0.00;;;16.00;92.10;;;;;;6337720;22;20033;-89
2023/06/13 02:43:04;;;;;;;0.00;0.00;;;;;;;;;;6337817;22;20007;-89
2023/06/13 02:45:29;;;;;;;0.00;0.00;;;15.90;92.20;;;;;;6337885;22;20013;-90
2023/06/13 02:47:55;;;;;;;0.00;0.00;;;15.90;92.70;;;;;;6337887;22;20390;-89
2023/06/13 02:50:22;;;;;;;0.00;0.00;;;15.90;92.90;;;;;;6337979;22;20011;-92
2023/06/13 02:52:48;;;;;;;0.00;0.00;;;15.90;92.90;;;;;;6345738;22;20014;-90
2023/06/13 02:55:13;;;;;;;0.00;0.00;;;15.80;93.00;;;;;;6340279;22;20010;-90
2023/06/13 02:57:40;;;;;;;0.00;0.00;;;;;;;;;;6348446;22;20002;-92
2023/06/13 03:00:10;;;;;;;0.00;0.00;;;15.80;93.30;;;;;;6344155;22;19998;-91
2023/06/13 03:02:39;;;;;;;0.00;0.00;;;15.70;93.70;;;;;;6346948;22;20007;-93
2023/06/13 03:05:10;;;;;;;0.00;0.00;;;15.70;94.00;;;;;;6345178;22;20003;-91
2023/06/13 03:07:36;;;;;;;0.00;0.00;;;15.60;94.20;;;;;;6341623;22;20021;-89
2023/06/13 03:10:04;;;;;;;0.00;0.00;;;15.60;94.40;;;;;;6342873;22;20099;-92
2023/06/13 03:12:30;;;;;;;0.00;0.00;;;15.70;94.10;;;;;;6340867;22;20002;-91
2023/06/13 03:14:56;;;;;;;0.00;0.00;;;15.70;94.70;;;;;;6343846;22;20056;-92
2023/06/13 03:17:22;;;;;;;0.00;0.00;;;15.60;94.80;;;;;;6344689;22;19998;-91
2023/06/13 03:19:48;;;;;;;0.00;0.00;;;15.50;95.00;;;;;;6345330;22;20058;-91
2023/06/13 03:22:14;;;;;;;0.00;0.00;;;15.60;95.50;;;;;;6347929;22;20045;-92
2023/06/13 03:24:47;;;;;;;0.00;0.00;;;15.60;95.60;;;;;;6347616;22;20023;-91
2023/06/13 03:27:13;;;;;;;0.00;0.00;;;15.50;95.80;;;;;;6347345;22;20003;-92
2023/06/13 03:29:42;;;;;;;0.00;0.00;;;15.50;95.90;;;;;;6347836;22;19998;-92
2023/06/13 03:32:11;;;;;;;0.00;0.00;;;15.60;96.00;;;;;;6347600;22;20005;-90
2023/06/13 03:34:38;;;;;;;0.00;0.00;;;15.60;96.00;;;;;;6352512;22;20021;-92
2023/06/13 03:37:08;;;;;;;0.00;0.00;;;15.50;96.20;;;;;;6342191;22;20006;-91
2023/06/13 03:39:34;;;;;;;0.00;0.00;;;15.60;96.30;;;;;;6336756;22;19995;-91
2023/06/13 03:42:00;;;;;;;0.00;0.00;;;15.50;96.30;;;;;;6341255;22;20022;-91
2023/06/13 03:44:29;;;;;;;0.00;0.00;;;15.50;96.70;;;;;;6342171;22;20041;-93
2023/06/13 03:46:55;;;;;;;0.00;0.00;;;15.50;96.70;;;;;;6346235;22;20464;-93
2023/06/13 03:49:25;;;;;;;0.00;0.00;;;15.50;96.70;;;;;;6341339;22;20350;-93
2023/06/13 03:51:51;;;;;;;0.00;0.00;;;15.60;97.00;;;;;;6340266;22;20011;-91
2023/06/13 03:54:18;;;;;;;0.00;0.00;;;15.50;97.20;;;;;;6339886;22;20052;-91
2023/06/13 03:56:44;;;;;;;0.00;0.00;;;15.60;97.40;;;;;;6340905;22;20030;-92
2023/06/13 03:59:10;;;;;;;0.00;0.00;;;;;;;;;;6337450;22;20048;-92
2023/06/13 04:01:36;;;;;;;0.00;0.00;;;;;;;;;;6337169;22;20097;-91
2023/06/13 04:04:02;;;;;;;0.00;0.00;;;15.60;97.80;;;;;;6337153;22;20081;-91
2023/06/13 04:06:28;;;;;;;0.00;0.00;;;15.60;98.10;;;;;;6337702;22;20307;-91
2023/06/13 04:08:54;;;;;;;0.00;0.00;;;15.70;97.80;;;;;;6337065;22;20078;-91
2023/06/13 04:11:20;;;;;;;0.00;0.00;;;15.80;98.00;;;;;;6336956;22;20084;-91
2023/06/13 04:13:46;;;;;;;0.00;0.00;;;;;;;;;;6336778;22;20009;-90
2023/06/13 04:16:11;;;;;;;0.00;0.00;;;15.80;97.60;;;;;;6336762;22;20643;-92
2023/06/13 04:18:39;;;;;;;0.00;0.00;;;;;;;;;;6337427;22;19995;-89
2023/06/13 04:21:06;;;;;;;0.00;0.00;;;15.90;97.30;;;;;;6336207;22;20616;-91
2023/06/13 04:23:32;;;;;;;0.00;0.00;;;15.90;97.30;;;;;;6336776;22;20003;-91
2023/06/13 04:25:59;;;;;;;0.00;0.00;;;;;;;;;;6337310;22;20006;-92
2023/06/13 04:28:25;;;;;;;0.00;0.00;;;15.90;97.50;;;;;;6338040;22;20031;-89
2023/06/13 04:30:51;;;;;;;0.00;0.00;;;;;;;;;;6337267;22;20005;-90
2023/06/13 04:33:18;;;;;;;0.00;0.00;;;;;;;;;;6336846;22;20449;-90
2023/06/13 04:40:54;;;;;;;0.00;0.00;;;16.20;96.70;;;;;;6325945;22;20022;-85
2023/06/13 04:43:21;;;;;;;0.00;0.00;;;;;;;;;;6312569;22;20014;-85
2023/06/13 04:45:48;;;;;;;0.00;0.00;;;16.30;97.50;;;;;;6309816;22;20013;-88
2023/06/13 04:48:15;;;;;;;0.00;0.00;;;;;;;;;;6314111;22;19999;-87
2023/06/13 04:50:41;;;;;;;0.00;0.00;;;16.30;97.30;;;;;;6308907;22;20101;-86
2023/06/13 04:53:07;;;;;;;0.00;0.00;;;16.40;97.00;;;;;;6311932;22;20031;-85
2023/06/13 04:55:35;;;;;;;0.00;0.00;;;16.00;97.30;;;;;;6338604;22;20006;-87
2023/06/13 04:58:01;;;;;;;0.00;0.00;;;16.50;97.90;;;;;;6309827;22;20341;-83
2023/06/13 05:00:27;;;;;;;0.00;0.00;;;;;;;;;;6308908;22;20235;-84
2023/06/13 05:02:55;;;;;;;0.00;0.00;;;16.50;96.80;;;;;;6308929;22;20089;-85
2023/06/13 05:05:22;;;;;;;0.00;0.00;;;;;;;;;;6308529;22;20576;-83
2023/06/13 05:07:49;;;;;;;0.00;0.00;;;;;;;;;;6309802;22;20009;-85
2023/06/13 05:10:15;;;;;;;0.00;0.00;;;16.80;96.30;;;;;;6336703;22;19998;-84
2023/06/13 05:12:41;;;;;;;0.00;0.00;;;;;;;;;;6309465;22;20376;-86
2023/06/13 05:15:07;;;;;;;0.00;0.00;;;16.90;96.70;;;;;;6308740;22;20030;-85
2023/06/13 05:17:33;;;;;;;0.00;0.00;;;;;;;;;;6305280;22;20027;-86
2023/06/13 05:19:59;;;;;;;0.00;0.00;;;16.90;97.10;;;;;;6336307;22;20332;-83
2023/06/13 05:22:25;;;;;;;0.00;0.00;;;17.00;96.80;;;;;;6308899;22;20013;-86
2023/06/13 05:24:50;;;;;;;0.00;0.00;;;17.00;97.20;;;;;;6310014;22;20010;-83
2023/06/13 05:27:16;;;;;;;0.00;0.00;;;17.00;97.00;;;;;;6310415;22;20488;-84
2023/06/13 05:29:42;;;;;;;0.00;0.00;;;17.10;96.70;;;;;;6310858;22;20164;-83
2023/06/13 05:32:08;;;;;;;0.00;0.00;;;17.10;97.60;;;;;;6310804;22;20007;-87
2023/06/13 05:34:34;;;;;;;0.00;0.00;;;;;;;;;;6310592;22;20044;-84
2023/06/13 05:37:00;;;;;;;0.10;0.10;;;;;;;;;;6310264;22;20078;-84
2023/06/13 05:39:26;;;;;;;0.00;0.00;;;17.40;97.10;;;;;;6309024;22;20013;-83
2023/06/13 05:41:51;;;;;;;0.00;0.00;;;17.40;97.20;;;;;;6337353;22;20508;-84
2023/06/13 05:44:17;;;;;;;0.00;0.00;;;17.40;97.10;;;;;;6309938;22;20013;-84
2023/06/13 05:46:42;;;;;;;0.00;0.00;;;17.50;97.10;;;;;;6310331;22;20063;-84
2023/06/13 05:49:08;;;;;;;0.00;0.00;;;;;;;;;;6309233;22;20002;-85
2023/06/13 05:51:34;;;;;;;0.00;0.00;;;;;;;;;;6309831;22;20006;-84
2023/06/13 05:54:00;;;;;;;0.00;0.00;;;;;;;;;;6309970;22;20056;-86
2023/06/13 05:56:26;;;;;;;0.00;0.00;;;17.70;97.00;;;;;;6309911;22;20426;-85
2023/06/13 05:58:52;;;;;;;0.00;0.00;;;;;;;;;;6309413;22;20007;-84
2023/06/13 06:01:20;;;;;;;0.00;0.00;;;;;;;;;;6309876;22;20007;-85
2023/06/13 06:03:46;;;;;;;0.00;0.00;;;;;;;;;;6310766;22;20003;-87
2023/06/13 06:06:12;;;;;;;0.00;0.00;;;17.90;96.30;;;;;;6310585;22;20337;-88
2023/06/13 06:08:38;;;;;;;0.00;0.00;;;18.00;96.60;;;;;;6310873;22;20034;-87
2023/06/13 06:11:03;;;;;;;0.00;0.00;;;18.10;96.60;;;;;;6311065;22;20417;-87
2023/06/13 06:13:29;;;;;;;0.00;0.00;;;18.00;96.90;;;;;;6310569;22;20006;-87
2023/06/13 06:15:55;;;;;;;0.00;0.00;;;;;;;;;;6310850;22;20006;-85
2023/06/13 06:18:21;;;;;;;0.00;0.00;;;18.00;96.30;;;;;;6308608;22;19999;-86
2023/06/13 06:20:47;;;;;;;0.00;0.00;;;20.80;96.80;;;;;;6310694;22;19998;-86
2023/06/13 06:23:14;;;;;;;0.00;0.00;;;;;;;;;;6310268;22;20007;-85
2023/06/13 06:25:40;;;;;;;0.00;0.00;;;18.20;95.30;;;;;;6310331;22;20010;-86
2023/06/13 06:28:06;;;;;;;0.00;0.00;;;18.20;96.00;;;;;;6310530;22;20006;-84
2023/06/13 06:30:31;;;;;;;0.00;0.00;;;18.20;96.10;;;;;;6309993;22;20011;-85
2023/06/13 06:32:57;;;;;;;0.00;0.00;;;18.50;96.30;;;;;;6310385;22;20086;-86
2023/06/13 06:35:23;;;;;;;0.00;0.00;;;18.30;96.20;;;;;;6310007;22;19994;-86
2023/06/13 06:37:49;;;;;;;0.00;0.00;;;;;;;;;;6310039;22;20053;-86
2023/06/13 06:40:15;;;;;;;0.00;0.00;;;18.70;95.10;;;;;;6309120;22;19995;-86
2023/06/13 06:42:40;;;;;;;0.00;0.00;;;;;;;;;;6309866;22;20500;-87
2023/06/13 06:45:09;;;;;;;0.00;0.00;;;18.90;94.40;;;;;;6310778;22;20017;-86
2023/06/13 06:47:35;;;;;;;0.00;0.00;;;18.90;94.40;;;;;;6310221;22;20009;-86
2023/06/13 06:50:01;;;;;;;0.00;0.00;;;19.00;94.00;;;;;;6309967;22;20426;-86
2023/06/13 06:52:28;;;;;;;0.00;0.00;;;19.00;94.30;;;;;;6309872;22;20020;-87
2023/06/13 06:54:53;;;;;;;0.00;0.00;;;19.20;94.50;;;;;;6310149;22;19995;-87
2023/06/13 06:57:19;;;;;;;0.00;0.00;;;19.20;93.90;;;;;;6310077;22;20006;-86
2023/06/13 06:59:45;;;;;;;0.00;0.00;;;19.40;93.50;;;;;;6308571;22;19999;-87
2023/06/13 07:02:11;;;;;;;0.00;0.00;;;;;;;;;;6309597;22;20003;-86
2023/06/13 07:04:36;;;;;;;0.00;0.00;;;19.60;92.20;;;;;;6335310;22;20006;-87
2023/06/13 07:07:02;;;;;;;0.00;0.00;;;19.60;92.20;;;;;;6309761;22;20011;-86
2023/06/13 07:09:28;;;;;;;0.00;0.00;;;19.60;92.60;;;;;;6309505;22;20333;-86
2023/06/13 07:11:56;;;;;;;0.00;0.00;;;19.40;92.60;;;;;;6309241;22;20006;-86
2023/06/13 07:14:22;;;;;;;0.00;0.00;;;19.50;93.10;;;;;;6309606;22;20005;-86
2023/06/13 07:16:48;;;;;;;0.00;0.00;;;19.60;92.20;;;;;;6309446;22;20448;-87
2023/06/13 07:19:13;;;;;;;0.00;0.00;;;19.60;92.20;;;;;;6309763;22;20034;-86
2023/06/13 07:21:39;;;;;;;0.00;0.00;;;;;;;;;;6337214;22;20010;-87
2023/06/13 07:24:05;;;;;;;0.00;0.00;;;19.80;92.00;;;;;;6310056;22;20152;-86
2023/06/13 07:26:31;;;;;;;0.00;0.00;;;19.80;92.20;;;;;;6309822;22;20006;-86
2023/06/13 07:28:57;;;;;;;0.00;0.00;;;;;;;;;;6337663;22;20070;-87
2023/06/13 07:31:22;;;;;;;0.00;0.00;;;20.00;92.20;;;;;;6309392;22;20534;-87
2023/06/13 07:33:48;;;;;;;0.00;0.00;;;;;;;;;;6309875;22;20030;-86
2023/06/13 07:36:16;;;;;;;0.00;0.00;;;;;;;;;;6309905;22;20376;-86
2023/06/13 07:38:42;;;;;;;0.00;0.00;;;20.20;92.40;;;;;;6309110;22;20018;-86
2023/06/13 07:41:08;;;;;;;0.00;0.00;;;;;;;;;;6309059;22;20342;-87
2023/06/13 07:43:34;;;;;;;0.00;0.00;;;;;;;;;;6309154;22;20006;-87
2023/06/13 07:46:00;;;;;;;0.00;0.00;;;20.50;91.70;;;;;;6309376;22;20003;-87
2023/06/13 07:48:26;;;;;;;0.00;0.00;;;;;;;;;;6309867;22;20084;-86
2023/06/13 07:50:51;;;;;;;0.00;0.00;;;20.40;91.60;;;;;;6309743;22;20002;-87
2023/06/13 07:53:17;;;;;;;0.00;0.00;;;20.40;92.60;;;;;;6309945;22;20010;-86
2023/06/13 07:55:46;;;;;;;0.00;0.00;;;;;;;;;;6310049;22;20081;-87
2023/06/13 07:58:12;;;;;;;0.00;0.00;;;;;;;;;;6309534;22;20003;-86
2023/06/13 08:00:38;;;;;;;0.00;0.00;;;;;;;;;;6309578;22;20632;-85
2023/06/13 08:03:04;;;;;;;0.00;0.00;;;21.00;91.80;;;;;;6309055;22;20014;-87
2023/06/13 08:05:30;;;;;;;0.00;0.00;;;21.00;92.00;;;;;;6309508;22;20010;-86
2023/06/13 08:07:56;;;;;;;0.00;0.00;;;21.20;90.10;;;;;;6309589;22;20003;-85
2023/06/13 08:10:22;;;;;;;0.00;0.00;;;21.10;90.20;;;;;;6336511;22;20421;-86
2023/06/13 08:12:48;;;;;;;0.00;0.00;;;21.20;90.60;;;;;;6309749;22;20428;-87
2023/06/13 08:15:14;;;;;;;0.00;0.00;;;21.40;88.90;;;;;;6309772;22;20015;-85
2023/06/13 08:17:43;;;;;;;0.00;0.00;;;;;;;;;;6309208;22;20003;-85
2023/06/13 08:20:09;;;;;;;0.00;0.00;;;21.40;89.70;;;;;;6309868;22;20024;-85
2023/06/13 08:22:39;;;;;;;0.00;0.00;;;21.30;90.00;;;;;;6311600;22;20233;-85
2023/06/13 08:25:08;;;;;;;0.00;0.00;;;21.50;90.20;;;;;;6285533;22;20010;-87
2023/06/13 08:27:35;;;;;;;0.00;0.00;;;21.40;90.10;;;;;;6310823;22;20006;-85
2023/06/13 08:30:03;;;;;;;0.00;0.00;;;21.50;90.90;;;;;;6285874;22;20056;-87
2023/06/13 08:32:29;;;;;;;0.00;0.00;;;21.70;90.60;;;;;;6311913;22;20076;-87
2023/06/13 08:34:55;;;;;;;0.00;0.00;;;;;;;;;;6312168;22;20433;-86
2023/06/13 08:37:21;;;;;;;0.00;0.00;;;;;;;;;;6340144;22;20071;-87
2023/06/13 08:39:47;;;;;;;0.00;0.00;;;22.10;90.10;;;;;;6308804;22;19995;-86
2023/06/13 08:42:13;;;;;;;0.00;0.00;;;22.10;87.00;;;;;;6310474;22;20379;-85
2023/06/13 08:44:40;;;;;;;0.00;0.00;;;22.10;87.40;;;;;;6311145;22;19998;-88
2023/06/13 08:47:06;;;;;;;0.00;0.00;;;24.70;88.60;;;;;;6311634;22;20092;-84
2023/06/13 08:49:32;;;;;;;0.00;0.00;;;;;;;;;;6311614;22;20003;-86
2023/06/13 08:51:59;;;;;;;0.00;0.00;;;22.30;85.80;;;;;;6310687;22;19999;-86
2023/06/13 08:54:27;;;;;;;0.00;0.00;;;22.40;86.60;;;;;;6311183;22;20010;-86
2023/06/13 08:56:54;;;;;;;0.00;0.00;;;22.40;86.10;;;;;;6309456;22;20048;-86
2023/06/13 08:59:26;;;;;;;0.00;0.00;;;22.40;86.60;;;;;;6282484;22;20002;-86
2023/06/13 09:01:52;;;;;;;0.00;0.00;;;22.50;85.00;;;;;;6309689;22;20442;-87
2023/06/13 09:04:18;;;;;;;0.00;0.00;;;22.60;84.70;;;;;;6311149;22;20006;-86
2023/06/13 09:06:45;;;;;;;0.00;0.00;;;;;;;;;;6311361;22;20006;-86
2023/06/13 09:09:12;;;;;;;0.00;0.00;;;22.70;83.70;;;;;;6311611;22;20003;-85
2023/06/13 09:11:37;;;;;;;0.00;0.00;;;22.70;85.10;;;;;;6311560;22;20003;-88
2023/06/13 09:14:05;;;;;;;0.00;0.00;;;22.80;82.70;;;;;;6311484;22;19999;-85
2023/06/13 09:16:32;;;;;;;0.00;0.00;;;22.80;83.10;;;;;;6311200;22;20453;-86
2023/06/13 09:18:59;;;;;;;0.00;0.00;;;22.90;85.00;;;;;;6311187;22;20498;-87
2023/06/13 09:21:25;;;;;;;0.00;0.00;;;;;;;;;;6311120;22;20006;-87
2023/06/13 09:23:53;;;;;;;0.00;0.00;;;23.00;85.50;;;;;;6310591;22;20497;-86
2023/06/13 09:26:19;;;;;;;0.00;0.00;;;23.00;85.70;;;;;;6309721;22;19999;-87
2023/06/13 09:28:49;;;;;;;0.00;0.00;;;23.10;83.00;;;;;;6310865;22;20087;-86
2023/06/13 09:31:16;;;;;;;0.00;0.00;;;;;;;;;;6311321;22;20338;-85
2023/06/13 09:33:43;;;;;;;0.00;0.00;;;23.00;82.60;;;;;;6311017;22;20007;-86
2023/06/13 09:36:10;;;;;;;0.00;0.00;;;;;;;;;;6309569;22;20010;-86
2023/06/13 09:38:40;;;;;;;0.00;0.00;;;23.00;81.90;;;;;;6310066;22;20003;-87
2023/06/13 09:41:13;;;;;;;0.00;0.00;;;23.00;83.20;;;;;;6284483;22;20018;-86
2023/06/13 09:43:39;;;;;;;0.00;0.00;;;23.30;82.50;;;;;;6310614;22;20089;-87
2023/06/13 09:46:05;;;;;;;0.00;0.00;;;;;;;;;;6310172;22;20029;-88
2023/06/13 09:48:31;;;;;;;0.00;0.00;;;23.40;78.70;;;;;;6311052;22;20002;-86
2023/06/13 09:50:57;;;;;;;0.00;0.00;;;23.40;79.20;;;;;;6310677;22;19995;-88
2023/06/13 09:53:23;;;;;;;0.00;0.00;;;;;;;;;;6310593;22;19999;-86
2023/06/13 09:55:49;;;;;;;0.00;0.00;;;23.40;79.90;;;;;;6310583;22;20064;-87
2023/06/13 09:58:15;;;;;;;0.00;0.00;;;23.30;80.30;;;;;;6311080;22;20082;-86
2023/06/13 10:00:41;;;;;;;0.00;0.00;;;23.50;79.30;;;;;;6285288;22;20007;-87
2023/06/13 10:03:08;;;;;;;0.00;0.00;;;24.80;80.80;;;;;;6310488;22;20163;-86
2023/06/13 10:05:34;;;;;;;0.00;0.00;;;;;;;;;;6311505;22;20006;-87
2023/06/13 10:08:00;;;;;;;0.00;0.00;;;23.70;75.60;;;;;;6310595;22;20090;-87
2023/06/13 10:10:25;;;;;;;0.00;0.00;;;25.00;76.20;;;;;;6338784;22;20033;-86
2023/06/13 10:12:58;;;;;;;0.00;0.00;;;23.80;76.50;;;;;;6311254;22;20021;-87
2023/06/13 10:15:31;;;;;;;0.00;0.00;;;23.90;75.40;;;;;;6310820;22;20483;-88
2023/06/13 10:18:00;;;;;;;0.00;0.00;;;24.00;74.50;;;;;;6310353;22;20413;-87
2023/06/13 10:20:28;;;;;;;0.00;0.00;;;24.00;74.90;;;;;;6311980;22;20501;-87
2023/06/13 10:22:56;;;;;;;0.00;0.00;;;24.00;75.00;;;;;;6312465;22;20014;-87
2023/06/13 10:25:26;;;;;;;0.00;0.00;;;24.00;73.90;;;;;;6311124;22;20081;-87
2023/06/13 10:27:55;;;;;;;0.00;0.00;;;24.10;75.30;;;;;;6310383;22;20265;-87
2023/06/13 10:30:33;;;;;;;;;;;24.30;74.90;;;;;;6311588;22;20007;-87
2023/06/13 10:33:52;;;;;;;0.00;0.00;;;24.30;74.70;;;;;;6311494;22;19952;-87
2023/06/13 10:36:24;;;;;;;0.00;0.00;;;24.30;74.10;;;;;;6260957;22;20286;-90
2023/06/13 10:39:18;;;;;;;0.00;0.00;;;24.40;70.20;;;;;;6278128;22;20003;-89
2023/06/13 10:41:51;;;;;;;0.00;0.00;;;24.50;70.10;;;;;;6272696;22;20038;-90
2023/06/13 10:44:28;;;;;;;0.00;0.00;;;24.30;70.60;;;;;;6277166;22;20035;-91
2023/06/13 10:46:54;;;;;;;0.00;0.00;;;;;;;;;;6277730;22;20037;-90
2023/06/13 10:49:20;;;;;;;0.00;0.00;;;;;;;;;;6278742;22;20380;-89
2023/06/13 10:51:46;;;;;;;0.00;0.00;;;;;;;;;;6277786;22;20003;-90
2023/06/13 10:54:14;;;;;;;0.00;0.00;;;24.70;69.70;;;;;;6277581;22;20400;-90
2023/06/13 10:56:43;;;;;;;0.00;0.00;;;24.80;69.80;;;;;;6275801;22;19999;-90
2023/06/13 10:59:15;;;;;;;0.00;0.00;;;24.90;69.30;;;;;;6273822;22;20128;-87
2023/06/13 11:01:41;;;;;;;0.00;0.00;;;24.70;69.20;;;;;;6277112;22;20027;-90
2023/06/13 11:04:19;;;;;;;0.00;0.00;;;24.50;69.50;;;;;;6276590;22;20010;-89
2023/06/13 11:06:47;;;;;;;0.00;0.00;;;24.90;69.30;;;;;;6276200;22;20006;-90
2023/06/13 11:09:20;;;;;;;0.00;0.00;;;24.80;69.40;;;;;;6276280;22;20003;-90
2023/06/13 11:12:18;;;;;;;0.00;0.00;;;24.80;68.50;;;;;;6279734;22;20008;-91
2023/06/13 11:15:17;;;;;;;0.00;0.00;;;25.00;68.40;;;;;;6279754;22;20004;-90
2023/06/13 11:18:05;;;;;;;;;;;27.10;70.40;;;;;;6278151;22;20198;-89
2023/06/13 11:20:31;;;;;;;0.00;0.00;;;;;;;;;;6281429;22;20412;-90
2023/06/13 11:23:01;;;;;;;0.00;0.00;;;25.00;70.20;;;;;;6279829;22;20007;-91
2023/06/13 11:25:27;;;;;;;0.00;0.00;;;;;;;;;;6279637;22;20004;-89
2023/06/13 11:27:53;;;;;;;0.00;0.00;;;;;;;;;;6279973;22;20026;-91
2023/06/13 11:30:19;;;;;;;0.00;0.00;;;;;;;;;;6277669;22;20054;-90
2023/06/13 11:32:45;;;;;;;0.00;0.00;;;;;;;;;;6276859;22;20003;-91
2023/06/13 11:35:16;;;;;;;0.00;0.00;;;25.40;65.40;;;;;;6275779;22;20327;-90
2023/06/13 11:37:48;;;;;;;0.00;0.00;;;25.40;66.10;;;;;;6278930;22;19999;-87
2023/06/13 11:40:23;;;;;;;0.00;0.00;;;25.40;66.30;;;;;;6277508;22;20055;-90
2023/06/13 11:42:52;;;;;;;0.00;0.00;;;25.40;64.50;;;;;;6276420;22;20011;-90
2023/06/13 11:45:21;;;;;;;0.00;0.00;;;25.40;64.70;;;;;;6278954;22;20007;-90
2023/06/13 11:47:47;;;;;;;0.00;0.00;;;;;;;;;;6277074;22;20003;-90
2023/06/13 11:50:13;;;;;;;0.00;0.00;;;;;;;;;;6278375;22;20328;-89
2023/06/13 11:52:39;;;;;;;0.00;0.00;;;25.60;65.60;;;;;;6276366;22;20102;-91
2023/06/13 11:55:17;;;;;;;0.00;0.00;;;25.60;64.00;;;;;;6271326;22;20252;-89
2023/06/13 11:57:48;;;;;;;0.00;0.00;;;25.60;64.80;;;;;;6274459;22;20014;-87
2023/06/13 12:00:17;;;;;;;0.00;0.00;;;25.50;64.20;;;;;;6272790;22;20037;-90
2023/06/13 12:02:43;;;;;;;0.00;0.00;;;;;;;;;;6275240;22;20004;-90
2023/06/13 12:05:10;;;;;;;0.00;0.00;;;;;;;;;;6277518;22;20018;-88
2023/06/13 12:07:36;;;;;;;0.00;0.00;;;;;;;;;;6276206;22;20014;-90
2023/06/13 12:10:02;;;;;;;0.00;0.00;;;;;;;;;;6275444;22;20011;-88
2023/06/13 12:12:29;;;;;;;0.00;0.00;;;;;;;;;;6274771;22;20090;-89
2023/06/13 12:14:55;;;;;;;0.00;0.00;;;25.40;64.30;;;;;;6274470;22;20086;-87
2023/06/13 12:17:23;;;;;;;0.00;0.00;;;25.40;65.00;;;;;;6273039;22;20033;-90
2023/06/13 12:19:48;;;;;;;0.00;0.00;;;25.50;64.90;;;;;;6278655;22;19995;-90
2023/06/13 12:22:15;;;;;;;0.00;0.00;;;;;;;;;;6278716;22;20041;-91
2023/06/13 12:24:42;;;;;;;0.00;0.00;;;;;;;;;;6279219;22;20028;-89
2023/06/13 12:27:11;;;;;;;0.00;0.00;;;;;;;;;;6278309;22;20432;-91
2023/06/13 12:29:39;;;;;;;0.00;0.00;;;25.70;63.20;;;;;;6276383;22;20420;-90
2023/06/13 12:32:05;;;;;;;0.00;0.00;;;26.70;64.40;;;;;;6276273;22;20018;-91
2023/06/13 12:34:41;;;;;;;0.00;0.00;;;26.00;61.50;;;;;;6275358;22;20003;-90
2023/06/13 12:37:09;;;;;;;0.00;0.00;;;;;;;;;;6278307;22;20516;-88
2023/06/13 12:39:38;;;;;;;0.00;0.00;;;;;;;;;;6277471;22;20332;-87
2023/06/13 12:42:07;;;;;;;0.00;0.00;;;26.20;59.90;;;;;;6276579;22;20019;-88
2023/06/13 12:44:33;;;;;;;0.00;0.00;;;;;;;;;;6275411;22;20344;-91
2023/06/13 12:47:02;;;;;;;0.00;0.00;;;;;;;;;;6272481;22;20007;-90
2023/06/13 12:49:37;;;;;;;0.00;0.00;;;26.20;61.10;;;;;;6282269;22;19995;-90
2023/06/13 12:52:07;;;;;;;0.00;0.00;;;27.60;62.80;;;;;;6283064;22;20083;-89
2023/06/13 12:54:37;;;;;;;0.00;0.00;;;26.40;61.80;;;;;;6276576;22;19999;-90
2023/06/13 12:57:08;;;;;;;0.00;0.00;;;26.30;59.70;;;;;;6273427;22;19999;-89
2023/06/13 12:59:42;;;;;;;0.00;0.00;;;26.30;60.20;;;;;;6276267;22;20006;-90
2023/06/13 13:02:15;;;;;;;0.00;0.00;;;26.50;63.10;;;;;;6275648;22;20003;-90
2023/06/13 13:04:43;;;;;;;0.00;0.00;;;26.30;62.40;;;;;;6274527;22;20007;-90
2023/06/13 13:07:09;;;;;;;0.00;0.00;;;;;;;;;;6275902;22;20026;-88
2023/06/13 13:09:39;;;;;;;0.00;0.00;;;26.40;62.20;;;;;;6277831;22;20013;-91
2023/06/13 13:12:06;;;;;;;0.00;0.00;;;;;;;;;;6279257;22;20003;-90
2023/06/13 13:14:32;;;;;;;0.00;0.00;;;;;;;;;;6276847;22;19999;-90
2023/06/13 13:16:58;;;;;;;0.00;0.00;;;26.60;60.80;;;;;;6275820;22;20380;-91
2023/06/13 13:19:24;;;;;;;0.00;0.00;;;;;;;;;;6276791;22;20011;-90
2023/06/13 13:21:51;;;;;;;0.00;0.00;;;;;;;;;;6271824;22;20011;-87
2023/06/13 13:24:17;;;;;;;0.00;0.00;;;27.20;61.80;;;;;;6275593;22;20007;-90
2023/06/13 13:26:48;;;;;;;0.00;0.00;;;27.00;62.20;;;;;;6278381;22;20015;-90
2023/06/13 13:29:15;;;;;;;0.00;0.00;;;;;;;;;;6277793;22;20034;-89